Terminal Aerodrome Forecast
Issued by NWS

Home | Current Version | Previous Version | Text Only | Print | Product List | Glossary On
Versions: 1 2 3 4 5 6 7 8 9 10 11 12 13 14 15 16 17 18
000
FTUS43 KILX 311700
TAFCMI
TAF
KCMI 311722Z 3118/0118 22012KT P6SM BKN050
     FM312300 18008KT 6SM -RA BR OVC025
     FM010400 16008KT 4SM BR VCSH OVC025
     FM010900 10010KT 2SM -RASN BR OVC007
     FM011400 11012KT 1SM -SN OVC004=

USA.gov is the U.S. government's official web portal to all federal, state and local government web resources and services.